Latest Weather Observations for Mawson*

IDT60801

Issued at 12:05 pm EST Thursday 21 August 2014 (issued every 30 minutes, with the page automatically refreshed every 10 minutes)

About weather observations | Map of weather stations | Latest weather observations for ANT | Other Formats
Station Details ID: 300001 Name: MAWSON Lat: -67.60 Lon: 62.88 Height: 9.9 m
Data from the previous 72 hours. | See also: Recent months at Mawson*
Date/Time
EST
Temp
°C
App
Temp
°C
Dew
Point
Rel
Hum
%
Delta-T
°C
Wind Press
QNH
hPa
Press
MSL
hPa
Rain
since 9 am
mm
Dir
 
Spd
km/h
Gust
km/h
Spd
kts
Gust
kts
21/12:00pm -26.0 -33.1 -36.3 37 - ENE 17 32 9 17 992.4 - -
21/11:49am -26.2 -35.4 -35.7 40 - SE 28 48 15 26 992.1 - -
21/11:30am -26.1 -34.5 -34.2 47 - SSW 24 33 13 18 992.7 - -
21/11:00am -27.2 -32.4 -33.4 56 - N 7 15 4 8 992.9 - -
21/10:30am -27.0 -33.0 -33.6 54 - NW 11 15 6 8 993.5 - -
21/10:00am -26.8 -33.2 -34.4 49 - S 13 17 7 9 993.6 993.8 -
21/09:30am -26.2 -31.8 -35.0 43 - N 9 13 5 7 993.6 - -
21/09:00am -25.7 -33.8 -35.5 39 - SE 22 35 12 19 993.7 - -
21/08:40am -24.4 -33.6 -36.0 33 - ESE 28 39 15 21 994.0 - -
21/08:34am -24.7 -36.4 -34.6 39 - SE 41 48 22 26 993.5 - -
21/08:31am -25.5 -35.5 -34.4 43 - S 32 54 17 29 993.5 - -
21/08:30am -25.6 -34.8 -34.7 42 - S 28 44 15 24 993.6 - -
21/08:00am -25.7 -33.8 -35.0 41 - SE 22 37 12 20 994.0 - -
21/07:43am -26.3 -35.9 -35.8 40 - SE 30 48 16 26 994.3 - -
21/07:37am -26.9 -38.2 -35.6 44 - SE 39 48 21 26 994.2 - -
21/07:33am -26.5 -36.1 -35.0 45 - ESE 30 48 16 26 994.0 - -
21/07:30am -26.3 -35.5 -35.8 40 - ESE 28 37 15 20 994.4 - -
21/07:00am -27.1 -37.7 -36.3 41 - SE 35 48 19 26 994.5 994.7 -
21/06:30am -25.5 -33.2 -35.6 38 - ESE 20 30 11 16 994.8 - -
21/06:00am -26.8 -34.5 -37.3 36 - NNE 20 32 11 17 995.1 - -
21/05:30am -26.0 -35.2 -36.9 35 - NE 28 35 15 19 995.0 - -
21/05:00am -24.9 -33.4 -36.1 35 - ENE 24 30 13 16 995.2 - -
21/04:39am -24.2 -33.4 -34.4 38 - E 28 33 15 18 995.1 - -
21/04:30am -24.3 -35.6 -35.3 35 - NE 39 50 21 27 995.0 - -
21/04:23am -24.5 -34.1 -35.8 34 - NE 30 46 16 25 994.8 - -
21/04:00am -25.6 -33.3 -34.7 42 - NE 20 28 11 15 995.4 995.6 -
21/03:30am -25.1 -31.8 -31.9 53 - NNE 15 20 8 11 995.7 - -
21/03:00am -25.0 -33.4 -31.0 57 - NNE 24 33 13 18 996.0 - -
21/02:30am -24.8 -34.0 -32.4 49 - NE 28 37 15 20 996.1 - -
21/02:00am -25.6 -34.5 -36.5 35 - E 26 35 14 19 996.1 - -
21/01:37am -25.7 -36.2 -34.5 44 - SSE 35 37 19 20 996.3 - -
21/01:34am -25.9 -36.8 -34.5 44 - E 37 43 20 23 996.3 - -
21/01:32am -26.1 -37.4 -35.4 41 - ESE 39 43 21 23 996.2 - -
21/01:30am -25.6 -35.2 -35.2 40 - SSE 30 39 16 21 996.2 - -
21/01:00am -25.2 -34.8 -34.1 43 - SE 30 39 16 21 996.5 996.7 -
21/12:30am -25.6 -34.4 -33.8 46 - SE 26 32 14 17 996.7 - -
21/12:00am -25.1 -33.9 -32.7 49 - ESE 26 30 14 16 996.7 - -
 
Date/Time
EST
Temp
°C
App
Temp
°C
Dew
Point
Rel
Hum
%
Delta-T
°C
Wind Press
QNH
hPa
Press
MSL
hPa
Rain
since 9 am
mm
Dir
 
Spd
km/h
Gust
km/h
Spd
kts
Gust
kts
20/11:30pm -25.2 -34.8 -33.6 45 - E 30 32 16 17 996.6 - -
20/11:19pm -25.4 -36.7 -34.5 42 - SE 39 43 21 23 996.6 - -
20/11:00pm -24.9 -34.9 -33.3 46 - SSE 32 37 17 20 996.6 - -
20/10:30pm -24.7 -33.9 -32.9 47 - SSE 28 35 15 19 996.7 - -
20/10:00pm -24.3 -33.5 -32.1 48 - SE 28 35 15 19 996.9 997.1 -
20/09:30pm -23.9 -33.5 -31.5 50 - SSE 30 35 16 19 996.8 - -
20/09:00pm -23.0 -30.5 -32.3 42 - S 19 20 10 11 997.0 - -
20/08:30pm -23.4 -33.9 -32.0 45 - SE 35 41 19 22 996.9 - -
20/08:00pm -23.7 -34.6 -31.8 47 - SE 37 43 20 23 996.9 - -
20/07:30pm -22.7 -33.2 -32.5 40 - SE 35 46 19 25 996.8 - -
20/07:00pm -21.1 -28.2 -33.7 31 - SSE 17 30 9 16 997.0 997.2 -
20/06:30pm -20.9 -27.6 -33.8 30 - SE 15 22 8 12 997.1 - -
20/06:00pm -22.1 -30.1 -30.8 45 - S 22 28 12 15 997.2 - -
20/05:30pm -22.0 -32.1 -30.7 45 - SSE 33 39 18 21 997.0 - -
20/05:18pm -21.9 -31.1 -31.3 42 - SSE 28 37 15 20 997.0 - -
20/05:00pm -21.4 -25.2 -29.0 50 - CALM 0 0 0 0 997.2 - -
20/04:30pm -20.8 -25.0 -29.1 47 - N 2 6 1 3 997.3 - -
20/04:00pm -21.1 -26.3 -29.8 45 - NNE 7 9 4 5 997.2 997.4 -
20/03:30pm -21.1 -26.6 -30.1 44 - NNE 9 15 5 8 997.2 - -
20/03:00pm -21.4 -29.8 -29.2 49 - SSE 24 28 13 15 996.9 - -
20/02:30pm -22.0 -29.6 -28.2 57 - SSE 20 28 11 15 996.5 - -
20/02:00pm -20.7 -27.8 -29.9 44 - SE 17 17 9 9 996.3 - -
20/01:30pm -21.6 -32.1 -29.8 48 - SE 35 43 19 23 996.1 - -
20/01:00pm -21.6 -31.5 -28.8 52 - SSE 32 39 17 21 996.0 996.2 -
20/12:30pm -20.5 -29.6 -28.2 50 - SE 28 32 15 17 995.7 - -
20/12:00pm -21.0 -31.5 -28.2 52 - SE 35 43 19 23 995.6 - -
20/11:30am -21.2 -32.4 -27.4 57 - SE 39 44 21 24 995.3 - -
20/11:00am -20.0 -31.2 -27.5 51 - SE 39 46 21 25 995.2 - -
20/10:30am -20.6 -30.1 -26.9 57 - SE 30 39 16 21 995.2 - -
20/10:00am -21.0 -32.2 -27.0 58 - SE 39 46 21 25 995.1 995.3 -
20/09:30am -20.2 -31.4 -26.3 58 - SE 39 46 21 25 995.0 - -
20/09:00am -20.4 -31.2 -25.1 66 - SE 37 44 20 24 994.9 - -
20/08:30am -20.6 -32.1 -25.3 66 - SE 41 44 22 24 994.8 - -
20/08:00am -20.6 -30.6 -25.8 63 - SE 33 41 18 22 994.8 - -
20/07:30am -20.1 -29.9 -25.8 60 - ESE 32 41 17 22 994.8 - -
20/07:00am -20.6 -30.6 -26.9 57 - SE 33 41 18 22 994.6 994.8 -
20/06:30am -20.6 -30.1 -27.0 56 - ESE 30 37 16 20 994.4 - -
20/06:00am -20.6 -31.0 -26.3 60 - SE 35 39 19 21 994.0 - -
20/05:30am -20.6 -31.0 -26.1 61 - SE 35 41 19 22 993.8 - -
20/05:00am -20.8 -31.6 -26.9 58 - SE 37 43 20 23 993.8 - -
20/04:30am -21.1 -32.3 -26.4 62 - SE 39 44 21 24 993.4 - -
20/04:00am -21.0 -32.6 -26.9 59 - SE 41 48 22 26 993.7 993.9 -
20/03:30am -21.2 -33.2 -27.6 56 - SE 43 50 23 27 993.7 - -
20/03:00am -21.3 -33.3 -27.3 58 - SE 43 50 23 27 993.6 - -
20/02:30am -20.9 -31.7 -27.3 56 - SE 37 48 20 26 993.6 - -
20/02:20am -20.8 -30.9 -27.4 55 - SE 33 52 18 28 993.7 - -
20/02:00am -21.1 -31.1 -27.1 58 - SSE 33 44 18 24 994.0 - -
20/01:52am -21.0 -30.1 -26.7 60 - SSE 28 39 15 21 993.9 - -
20/01:30am -21.3 -25.8 -24.2 77 - S 4 9 2 5 993.9 - -
20/01:00am -21.1 -26.5 -24.3 75 - W 9 11 5 6 993.7 993.9 -
20/12:30am -21.4 -26.3 -24.8 74 - S 6 7 3 4 993.7 - -
20/12:00am -21.6 -26.1 -25.0 74 - NNE 4 6 2 3 993.2 - -
 
Date/Time
EST
Temp
°C
App
Temp
°C
Dew
Point
Rel
Hum
%
Delta-T
°C
Wind Press
QNH
hPa
Press
MSL
hPa
Rain
since 9 am
mm
Dir
 
Spd
km/h
Gust
km/h
Spd
kts
Gust
kts
19/11:30pm -21.2 -26.1 -24.9 72 - NNE 6 7 3 4 993.2 - -
19/11:00pm -21.0 -26.8 -24.8 71 - NE 11 13 6 7 993.1 - -
19/10:30pm -21.0 -24.7 -25.0 70 - CALM 0 0 0 0 993.0 - -
19/10:00pm -21.0 -25.9 -25.0 70 - ENE 6 7 3 4 992.9 993.1 -
19/09:30pm -21.0 -25.9 -25.0 70 - ENE 6 7 3 4 992.9 - -
19/09:00pm -20.5 -25.6 -24.5 70 - ENE 7 7 4 4 992.8 - -
19/08:30pm -20.4 -24.1 -24.7 68 - CALM 0 0 0 0 992.7 - -
19/08:00pm -20.4 -24.9 -24.6 69 - ENE 4 6 2 3 992.7 - -
19/07:30pm -20.1 -23.8 -24.5 68 - CALM 0 0 0 0 992.4 - -
19/07:00pm -19.9 -24.4 -24.8 65 - ENE 4 6 2 3 992.3 992.5 -
19/06:30pm -20.0 -24.5 -24.9 65 - ENE 4 6 2 3 992.1 - -
19/06:00pm -20.2 -25.1 -25.2 64 - ENE 6 7 3 4 992.0 - -
19/05:30pm -20.3 -25.2 -25.0 66 - SE 6 7 3 4 991.7 - -
19/05:00pm -20.4 -25.3 -25.1 66 - SSE 6 9 3 5 992.0 - -
19/04:30pm -20.3 -24.0 -25.5 63 - CALM 0 0 0 0 992.0 - -
19/04:00pm -20.5 -24.3 -25.8 62 - CALM 0 0 0 0 991.9 992.1 -
19/03:30pm -20.1 -24.2 -26.4 57 - SE 2 6 1 3 992.0 - -
19/03:00pm -20.5 -25.6 -26.2 60 - SW 7 9 4 5 991.9 - -
19/02:30pm -20.6 -26.1 -26.3 60 - SW 9 13 5 7 991.7 - -
19/02:00pm -20.4 -25.9 -26.5 58 - E 9 15 5 8 991.8 - -
19/01:30pm -20.9 -24.7 -26.8 59 - CALM 0 6 0 3 991.6 - -
19/01:00pm -20.8 -24.6 -26.3 61 - CALM 0 0 0 0 991.6 991.8 -
19/12:30pm -20.6 -24.4 -26.3 60 - CALM 0 0 0 0 991.4 - -
19/12:00pm -20.5 -25.4 -26.2 60 - SSE 6 7 3 4 991.2 - -
19/11:30am -20.4 -25.5 -27.3 54 - SSE 7 11 4 6 991.0 - -
19/11:00am -20.6 -24.4 -27.8 52 - CALM 0 0 0 0 990.9 - -
19/10:30am -20.7 -25.3 -28.4 50 - SSE 4 9 2 5 990.8 - -
19/10:00am -21.0 -25.6 -28.8 50 - SSE 4 7 2 4 990.5 990.7 -
19/09:30am -20.3 -25.8 -29.1 45 - S 9 13 5 7 990.3 - -
19/09:00am -20.9 -26.0 -29.0 48 - SE 7 11 4 6 990.2 - -
19/08:30am -20.4 -25.4 -29.0 46 - SE 6 13 3 7 990.2 - -
19/08:00am -20.6 -24.8 -28.7 48 - E 2 7 1 4 990.2 - -
19/07:30am -20.1 -24.3 -29.4 43 - E 2 6 1 3 990.0 - -
19/07:00am -20.0 -24.6 -29.8 41 - E 4 7 2 4 989.8 990.0 -
19/06:30am -20.0 -25.2 -29.8 41 - ESE 7 9 4 5 989.6 - -
19/06:00am -20.3 -25.4 -29.1 45 - SSE 7 9 4 5 989.5 - -
19/05:30am -20.6 -25.5 -28.5 49 - SSE 6 9 3 5 989.6 - -
19/05:00am -20.5 -25.6 -28.2 50 - W 7 11 4 6 989.5 - -
19/04:30am -20.0 -25.1 -28.6 46 - SW 7 9 4 5 989.4 - -
19/04:00am -18.5 -26.5 -32.1 29 - ESE 22 28 12 15 989.0 989.2 -
19/03:30am -19.5 -28.7 -31.6 33 - SE 28 35 15 19 988.7 - -
19/03:00am -19.5 -29.6 -31.6 33 - SE 33 39 18 21 988.4 - -
19/02:30am -18.6 -26.6 -31.1 32 - ESE 22 28 12 15 988.2 - -
19/02:00am -19.5 -29.1 -31.3 34 - ESE 30 39 16 21 988.1 - -
19/01:30am -20.1 -29.6 -30.2 40 - ESE 30 35 16 19 987.9 - -
19/01:00am -18.6 -27.7 -27.5 45 - ESE 28 35 15 19 987.7 987.9 -
19/12:30am -17.6 -25.7 -33.6 23 - SE 22 30 12 16 987.6 - -
19/12:00am -19.6 -29.1 -29.2 42 - SSE 30 35 16 19 987.3 - -
 
Date/Time
EST
Temp
°C
App
Temp
°C
Dew
Point
Rel
Hum
%
Delta-T
°C
Wind Press
QNH
hPa
Press
MSL
hPa
Rain
since 9 am
mm
Dir
 
Spd
km/h
Gust
km/h
Spd
kts
Gust
kts
18/11:30pm -19.3 -30.9 -28.9 42 - SE 41 44 22 24 987.1 - -
18/11:00pm -19.0 -31.0 -27.7 46 - SE 43 46 23 25 987.0 - -
18/10:30pm -19.4 -31.4 -28.3 45 - SE 43 50 23 27 986.8 - -
18/10:00pm -18.7 -30.9 -29.4 38 - SE 44 48 24 26 986.5 986.7 -
18/09:30pm -18.0 -30.2 -27.7 42 - SE 44 50 24 27 986.2 - -
18/09:00pm -18.1 -30.2 -27.3 44 - SE 44 50 24 27 986.0 - -
18/08:30pm -18.7 -30.7 -27.6 45 - SSE 43 52 23 28 985.8 - -
18/08:00pm -17.5 -29.4 -24.5 54 - SE 43 50 23 27 985.6 - -
18/07:30pm -17.5 -28.2 -23.9 57 - SE 37 43 20 23 985.6 - -
18/07:00pm -17.6 -29.5 -24.2 56 - SE 43 52 23 28 985.4 985.6 -
18/06:30pm -17.8 -28.5 -24.2 57 - SE 37 43 20 23 985.3 - -
18/06:00pm -17.8 -29.7 -24.0 58 - SE 43 50 23 27 985.3 - -
18/05:30pm -17.9 -30.4 -24.1 58 - SE 46 56 25 30 984.8 - -
18/05:00pm -17.9 -30.7 -23.6 61 - SE 48 54 26 29 984.6 - -
18/04:30pm -17.9 -30.3 -23.9 59 - SE 46 52 25 28 984.3 - -

Other Formats:

Comma delimited format used in spreadsheet applications
http://www.bom.gov.au/fwo/IDT60803/IDT60803.89564.axf

JavaScript Object Notation format (JSON) in row-major order
http://www.bom.gov.au/fwo/IDT60803/IDT60803.89564.json